Bert Mooney Airport Butte US
ICAO: KBTM
IATA: BTM
Category: Medium
Scheduled Services: Yes

Elevation: 5550 ft
TransAlt. 18000 ft.

Airport Communications:
ASOS:135.175
SALT LAKE CITY CNTR:132.4
GREAT FALLS RDO:122.2
CTAF/UNICOM:123

KBTM Zoom In..

Runways:

(A) RW 12 length 5100 ft width 75 ft
---- / hdg 113

(B) RW 15 length 9001 ft width 150 ft
ILS 110.90 / hdg 151

(C) RW 30 length 5100 ft width 75 ft
---- / hdg 293

(D) RW 33 length 9001 ft width 150 ft
---- / hdg 331

Location; KBTM
Day. 17 / Time. 06.53 Zulu
* Altimeter: 30.21
* Temperature: 16° c. 60.8°f.
* Wind from: 160° Speed 03 kn.
Dewpoint: 07° c.
Visibility: 10 Statute Miles.
Clouds: Clear (automated report).

KBTM 170653Z AUTO 16003KT 10SM CLR 16/07 A3021 RMK AO2 SLP167 T01610072 403110094


Wind From 160°
Speed 03 kn.

 
 
jpsmedia.com for Web Design worldairports.se 2018   terms of use